Terminal Aerodrome Forecast
Issued by NWS

Home | Current Version | Previous Version | Graphics & Text | Print | Product List | Glossary On
Versions: 1 2 3 4 5 6 7 8 9 10 11 12 13 14 15 16 17 18 19 20 21
565
FTUS43 KFGF 111720
TAFBJI
TAF
KBJI 111720Z 1118/1218 34018G28KT P6SM BKN008 OVC015
      TEMPO 1118/1120 3SM -SN BLSN OVC010
     FM112000 33018G28KT P6SM SCT010 BKN015
     FM112200 32017KT P6SM SCT015
     FM120400 28005KT P6SM SCT250=

USA.gov is the U.S. government's official web portal to all federal, state and local government web resources and services.